sensor_id;sensor_type;location;lat;lon;timestamp;temperature;humidity
49218;DHT22;35045;51.194;7.268;2023-08-08T00:01:36;14.10;99.90
49218;DHT22;35045;51.194;7.268;2023-08-08T00:04:02;14.10;99.90
49218;DHT22;35045;51.194;7.268;2023-08-08T00:06:28;14.00;99.90
49218;DHT22;35045;51.194;7.268;2023-08-08T00:08:54;14.00;99.90
49218;DHT22;35045;51.194;7.268;2023-08-08T00:11:21;14.00;99.90
49218;DHT22;35045;51.194;7.268;2023-08-08T00:13:47;14.10;99.90
49218;DHT22;35045;51.194;7.268;2023-08-08T00:16:13;14.00;99.90
49218;DHT22;35045;51.194;7.268;2023-08-08T00:18:39;13.90;99.90
49218;DHT22;35045;51.194;7.268;2023-08-08T00:21:05;13.90;99.90
49218;DHT22;35045;51.194;7.268;2023-08-08T00:23:31;13.90;99.90
49218;DHT22;35045;51.194;7.268;2023-08-08T00:25:57;13.80;99.90
49218;DHT22;35045;51.194;7.268;2023-08-08T00:28:23;13.80;99.90
49218;DHT22;35045;51.194;7.268;2023-08-08T00:30:49;13.70;99.90
49218;DHT22;35045;51.194;7.268;2023-08-08T00:33:15;13.70;99.90
49218;DHT22;35045;51.194;7.268;2023-08-08T00:35:41;13.70;99.90
49218;DHT22;35045;51.194;7.268;2023-08-08T00:38:07;13.70;99.90
49218;DHT22;35045;51.194;7.268;2023-08-08T00:40:33;13.70;99.90
49218;DHT22;35045;51.194;7.268;2023-08-08T00:42:59;13.70;99.90
49218;DHT22;35045;51.194;7.268;2023-08-08T00:45:25;13.70;99.90
49218;DHT22;35045;51.194;7.268;2023-08-08T00:47:51;13.60;99.90
49218;DHT22;35045;51.194;7.268;2023-08-08T00:50:17;13.60;99.90
49218;DHT22;35045;51.194;7.268;2023-08-08T00:52:43;13.60;99.90
49218;DHT22;35045;51.194;7.268;2023-08-08T00:55:10;13.60;99.90
49218;DHT22;35045;51.194;7.268;2023-08-08T00:57:36;13.60;99.90
49218;DHT22;35045;51.194;7.268;2023-08-08T01:00:07;13.50;99.90
49218;DHT22;35045;51.194;7.268;2023-08-08T01:02:35;13.50;99.90
49218;DHT22;35045;51.194;7.268;2023-08-08T01:05:01;13.40;99.90
49218;DHT22;35045;51.194;7.268;2023-08-08T01:07:39;13.40;99.90
49218;DHT22;35045;51.194;7.268;2023-08-08T01:10:17;13.30;99.90
49218;DHT22;35045;51.194;7.268;2023-08-08T01:12:47;13.30;99.90
49218;DHT22;35045;51.194;7.268;2023-08-08T01:15:14;13.30;99.90
49218;DHT22;35045;51.194;7.268;2023-08-08T01:17:41;13.30;99.90
49218;DHT22;35045;51.194;7.268;2023-08-08T01:20:07;13.20;99.90
49218;DHT22;35045;51.194;7.268;2023-08-08T01:22:45;13.20;99.90
49218;DHT22;35045;51.194;7.268;2023-08-08T01:25:15;13.20;99.90
49218;DHT22;35045;51.194;7.268;2023-08-08T01:27:41;13.20;99.90
49218;DHT22;35045;51.194;7.268;2023-08-08T01:30:07;13.20;99.90
49218;DHT22;35045;51.194;7.268;2023-08-08T01:32:33;13.10;99.90
49218;DHT22;35045;51.194;7.268;2023-08-08T01:34:59;13.10;99.90
49218;DHT22;35045;51.194;7.268;2023-08-08T01:37:44;13.10;99.90
49218;DHT22;35045;51.194;7.268;2023-08-08T01:40:15;13.10;99.90
49218;DHT22;35045;51.194;7.268;2023-08-08T01:42:45;13.10;99.90
49218;DHT22;35045;51.194;7.268;2023-08-08T01:45:12;13.10;99.90
49218;DHT22;35045;51.194;7.268;2023-08-08T01:47:38;13.00;99.90
49218;DHT22;35045;51.194;7.268;2023-08-08T01:50:05;13.10;99.90
49218;DHT22;35045;51.194;7.268;2023-08-08T01:52:31;13.10;99.90
49218;DHT22;35045;51.194;7.268;2023-08-08T01:54:57;13.10;99.90
49218;DHT22;35045;51.194;7.268;2023-08-08T01:57:23;13.10;99.90
49218;DHT22;35045;51.194;7.268;2023-08-08T01:59:49;13.20;99.90
49218;DHT22;35045;51.194;7.268;2023-08-08T02:02:15;13.10;99.90
49218;DHT22;35045;51.194;7.268;2023-08-08T02:04:43;13.10;99.90
49218;DHT22;35045;51.194;7.268;2023-08-08T02:07:09;13.10;99.90
49218;DHT22;35045;51.194;7.268;2023-08-08T02:09:35;13.20;99.90
49218;DHT22;35045;51.194;7.268;2023-08-08T02:12:01;13.10;99.90
49218;DHT22;35045;51.194;7.268;2023-08-08T02:14:27;13.20;99.90
49218;DHT22;35045;51.194;7.268;2023-08-08T02:16:53;13.20;99.90
49218;DHT22;35045;51.194;7.268;2023-08-08T02:19:19;13.20;99.90
49218;DHT22;35045;51.194;7.268;2023-08-08T02:21:45;13.20;99.90
49218;DHT22;35045;51.194;7.268;2023-08-08T02:24:11;13.20;99.90
49218;DHT22;35045;51.194;7.268;2023-08-08T02:26:37;13.20;99.90
49218;DHT22;35045;51.194;7.268;2023-08-08T02:29:03;13.20;99.90
49218;DHT22;35045;51.194;7.268;2023-08-08T02:31:29;13.20;99.90
49218;DHT22;35045;51.194;7.268;2023-08-08T02:33:55;13.20;99.90
49218;DHT22;35045;51.194;7.268;2023-08-08T02:36:21;13.20;99.90
49218;DHT22;35045;51.194;7.268;2023-08-08T02:38:47;13.10;99.90
49218;DHT22;35045;51.194;7.268;2023-08-08T02:41:15;13.10;99.90
49218;DHT22;35045;51.194;7.268;2023-08-08T02:43:41;13.10;99.90
49218;DHT22;35045;51.194;7.268;2023-08-08T02:46:07;13.10;99.90
49218;DHT22;35045;51.194;7.268;2023-08-08T02:48:33;13.10;99.90
49218;DHT22;35045;51.194;7.268;2023-08-08T02:50:59;13.00;99.90
49218;DHT22;35045;51.194;7.268;2023-08-08T02:53:25;13.00;99.90
49218;DHT22;35045;51.194;7.268;2023-08-08T02:55:51;13.00;99.90
49218;DHT22;35045;51.194;7.268;2023-08-08T02:58:17;12.90;99.90
49218;DHT22;35045;51.194;7.268;2023-08-08T03:00:43;12.80;99.90
49218;DHT22;35045;51.194;7.268;2023-08-08T03:03:09;12.90;99.90
49218;DHT22;35045;51.194;7.268;2023-08-08T03:05:35;12.80;99.90
49218;DHT22;35045;51.194;7.268;2023-08-08T03:08:01;12.80;99.90
49218;DHT22;35045;51.194;7.268;2023-08-08T03:10:27;12.80;99.90
49218;DHT22;35045;51.194;7.268;2023-08-08T03:12:54;12.70;99.90
49218;DHT22;35045;51.194;7.268;2023-08-08T03:15:20;12.70;99.90
49218;DHT22;35045;51.194;7.268;2023-08-08T03:17:46;12.60;99.90
49218;DHT22;35045;51.194;7.268;2023-08-08T03:20:12;12.60;99.90
49218;DHT22;35045;51.194;7.268;2023-08-08T03:22:38;12.60;99.90
49218;DHT22;35045;51.194;7.268;2023-08-08T03:25:04;12.60;99.90
49218;DHT22;35045;51.194;7.268;2023-08-08T03:27:30;12.60;99.90
49218;DHT22;35045;51.194;7.268;2023-08-08T03:29:56;12.60;99.90
49218;DHT22;35045;51.194;7.268;2023-08-08T03:32:22;12.50;99.90
49218;DHT22;35045;51.194;7.268;2023-08-08T03:34:48;12.60;99.90
49218;DHT22;35045;51.194;7.268;2023-08-08T03:37:14;12.70;99.90
49218;DHT22;35045;51.194;7.268;2023-08-08T03:39:40;12.60;99.90
49218;DHT22;35045;51.194;7.268;2023-08-08T03:42:06;12.70;99.90
49218;DHT22;35045;51.194;7.268;2023-08-08T03:44:33;12.70;99.90
49218;DHT22;35045;51.194;7.268;2023-08-08T03:46:59;12.70;99.90
49218;DHT22;35045;51.194;7.268;2023-08-08T03:49:31;12.60;99.90
49218;DHT22;35045;51.194;7.268;2023-08-08T03:51:57;12.60;99.90
49218;DHT22;35045;51.194;7.268;2023-08-08T03:54:23;12.70;99.90
49218;DHT22;35045;51.194;7.268;2023-08-08T03:56:49;12.70;99.90
49218;DHT22;35045;51.194;7.268;2023-08-08T03:59:15;12.70;99.90
49218;DHT22;35045;51.194;7.268;2023-08-08T04:01:41;12.80;99.90
49218;DHT22;35045;51.194;7.268;2023-08-08T04:04:07;12.70;99.90
49218;DHT22;35045;51.194;7.268;2023-08-08T04:06:33;12.70;99.90
49218;DHT22;35045;51.194;7.268;2023-08-08T04:08:59;12.70;99.90
49218;DHT22;35045;51.194;7.268;2023-08-08T04:11:26;12.70;99.90
49218;DHT22;35045;51.194;7.268;2023-08-08T04:13:52;12.80;99.90
49218;DHT22;35045;51.194;7.268;2023-08-08T04:16:18;12.80;99.90
49218;DHT22;35045;51.194;7.268;2023-08-08T04:18:48;12.80;99.90
49218;DHT22;35045;51.194;7.268;2023-08-08T04:21:14;12.80;99.90
49218;DHT22;35045;51.194;7.268;2023-08-08T04:23:40;12.90;99.90
49218;DHT22;35045;51.194;7.268;2023-08-08T04:26:06;12.90;99.90
49218;DHT22;35045;51.194;7.268;2023-08-08T04:28:32;12.80;99.90
49218;DHT22;35045;51.194;7.268;2023-08-08T04:30:58;12.80;99.90
49218;DHT22;35045;51.194;7.268;2023-08-08T04:33:24;12.90;99.90
49218;DHT22;35045;51.194;7.268;2023-08-08T04:35:50;12.80;99.90
49218;DHT22;35045;51.194;7.268;2023-08-08T04:38:16;12.80;99.90
49218;DHT22;35045;51.194;7.268;2023-08-08T04:40:42;12.80;99.90
49218;DHT22;35045;51.194;7.268;2023-08-08T04:43:08;12.80;99.90
49218;DHT22;35045;51.194;7.268;2023-08-08T04:45:34;12.90;99.90
49218;DHT22;35045;51.194;7.268;2023-08-08T04:48:00;12.80;99.90
49218;DHT22;35045;51.194;7.268;2023-08-08T04:50:26;12.80;99.90
49218;DHT22;35045;51.194;7.268;2023-08-08T04:52:52;12.80;99.90
49218;DHT22;35045;51.194;7.268;2023-08-08T04:55:18;12.90;99.90
49218;DHT22;35045;51.194;7.268;2023-08-08T04:57:45;12.90;99.90
49218;DHT22;35045;51.194;7.268;2023-08-08T05:00:11;12.90;99.90
49218;DHT22;35045;51.194;7.268;2023-08-08T05:02:37;12.90;99.90
49218;DHT22;35045;51.194;7.268;2023-08-08T05:05:05;12.90;99.90
49218;DHT22;35045;51.194;7.268;2023-08-08T05:07:31;12.90;99.90
49218;DHT22;35045;51.194;7.268;2023-08-08T05:09:57;12.90;99.90
49218;DHT22;35045;51.194;7.268;2023-08-08T05:12:23;12.90;99.90
49218;DHT22;35045;51.194;7.268;2023-08-08T05:14:49;12.90;99.90
49218;DHT22;35045;51.194;7.268;2023-08-08T05:17:15;12.90;99.90
49218;DHT22;35045;51.194;7.268;2023-08-08T05:19:41;12.90;99.90
49218;DHT22;35045;51.194;7.268;2023-08-08T05:22:07;12.80;99.90
49218;DHT22;35045;51.194;7.268;2023-08-08T05:24:33;12.80;99.90
49218;DHT22;35045;51.194;7.268;2023-08-08T05:27:01;12.80;99.90
49218;DHT22;35045;51.194;7.268;2023-08-08T05:29:27;12.90;99.90
49218;DHT22;35045;51.194;7.268;2023-08-08T05:31:53;12.90;99.90
49218;DHT22;35045;51.194;7.268;2023-08-08T05:34:19;12.80;99.90
49218;DHT22;35045;51.194;7.268;2023-08-08T05:36:45;12.80;99.90
49218;DHT22;35045;51.194;7.268;2023-08-08T05:39:11;12.90;99.90
49218;DHT22;35045;51.194;7.268;2023-08-08T05:41:37;12.90;99.90
49218;DHT22;35045;51.194;7.268;2023-08-08T05:44:03;12.90;99.90
49218;DHT22;35045;51.194;7.268;2023-08-08T05:46:29;12.90;99.90
49218;DHT22;35045;51.194;7.268;2023-08-08T05:48:55;12.80;99.90
49218;DHT22;35045;51.194;7.268;2023-08-08T05:51:21;12.90;99.90
49218;DHT22;35045;51.194;7.268;2023-08-08T05:53:47;12.80;99.90
49218;DHT22;35045;51.194;7.268;2023-08-08T05:56:13;12.80;99.90
49218;DHT22;35045;51.194;7.268;2023-08-08T05:58:39;12.80;99.90
49218;DHT22;35045;51.194;7.268;2023-08-08T06:01:05;12.80;99.90
49218;DHT22;35045;51.194;7.268;2023-08-08T06:03:35;12.80;99.90
49218;DHT22;35045;51.194;7.268;2023-08-08T06:06:03;12.80;99.90
49218;DHT22;35045;51.194;7.268;2023-08-08T06:08:29;12.80;99.90
49218;DHT22;35045;51.194;7.268;2023-08-08T06:10:55;12.90;99.90
49218;DHT22;35045;51.194;7.268;2023-08-08T06:13:21;12.90;99.90
49218;DHT22;35045;51.194;7.268;2023-08-08T06:15:47;12.90;99.90
49218;DHT22;35045;51.194;7.268;2023-08-08T06:18:13;12.90;99.90
49218;DHT22;35045;51.194;7.268;2023-08-08T06:20:39;12.90;99.90
49218;DHT22;35045;51.194;7.268;2023-08-08T06:23:05;13.00;99.90
49218;DHT22;35045;51.194;7.268;2023-08-08T06:25:31;13.00;99.90
49218;DHT22;35045;51.194;7.268;2023-08-08T06:27:57;13.10;99.90
49218;DHT22;35045;51.194;7.268;2023-08-08T06:30:23;13.10;99.90
49218;DHT22;35045;51.194;7.268;2023-08-08T06:32:49;13.10;99.90
49218;DHT22;35045;51.194;7.268;2023-08-08T06:35:15;13.10;99.90
49218;DHT22;35045;51.194;7.268;2023-08-08T06:37:42;13.20;99.90
49218;DHT22;35045;51.194;7.268;2023-08-08T06:40:09;13.20;99.90
49218;DHT22;35045;51.194;7.268;2023-08-08T06:42:36;13.20;99.90
49218;DHT22;35045;51.194;7.268;2023-08-08T06:45:05;13.20;99.90
49218;DHT22;35045;51.194;7.268;2023-08-08T06:47:31;13.20;99.90
49218;DHT22;35045;51.194;7.268;2023-08-08T06:49:57;13.20;99.90
49218;DHT22;35045;51.194;7.268;2023-08-08T06:52:23;13.30;99.90
49218;DHT22;35045;51.194;7.268;2023-08-08T06:54:49;13.20;99.90
49218;DHT22;35045;51.194;7.268;2023-08-08T06:57:15;13.20;99.90
49218;DHT22;35045;51.194;7.268;2023-08-08T06:59:41;13.30;99.90
49218;DHT22;35045;51.194;7.268;2023-08-08T07:02:07;13.30;99.90
49218;DHT22;35045;51.194;7.268;2023-08-08T07:04:33;13.30;99.90
49218;DHT22;35045;51.194;7.268;2023-08-08T07:06:59;13.40;99.90
49218;DHT22;35045;51.194;7.268;2023-08-08T07:09:25;13.40;99.90
49218;DHT22;35045;51.194;7.268;2023-08-08T07:11:51;13.30;99.90
49218;DHT22;35045;51.194;7.268;2023-08-08T07:14:17;13.30;99.90
49218;DHT22;35045;51.194;7.268;2023-08-08T07:16:43;13.30;99.90
49218;DHT22;35045;51.194;7.268;2023-08-08T07:19:09;13.40;99.90
49218;DHT22;35045;51.194;7.268;2023-08-08T07:21:37;13.40;99.90
49218;DHT22;35045;51.194;7.268;2023-08-08T07:24:03;13.50;99.90
49218;DHT22;35045;51.194;7.268;2023-08-08T07:26:29;13.50;99.90
49218;DHT22;35045;51.194;7.268;2023-08-08T07:28:55;13.60;99.90
49218;DHT22;35045;51.194;7.268;2023-08-08T07:31:21;13.60;99.90
49218;DHT22;35045;51.194;7.268;2023-08-08T07:33:47;13.60;99.90
49218;DHT22;35045;51.194;7.268;2023-08-08T07:36:13;13.70;99.90
49218;DHT22;35045;51.194;7.268;2023-08-08T07:38:39;13.70;99.90
49218;DHT22;35045;51.194;7.268;2023-08-08T07:41:05;13.80;99.90
49218;DHT22;35045;51.194;7.268;2023-08-08T07:43:31;13.70;99.90
49218;DHT22;35045;51.194;7.268;2023-08-08T07:45:57;13.70;99.90
49218;DHT22;35045;51.194;7.268;2023-08-08T07:48:23;13.70;99.90
49218;DHT22;35045;51.194;7.268;2023-08-08T07:50:49;13.70;99.90
49218;DHT22;35045;51.194;7.268;2023-08-08T07:53:15;13.80;99.90
49218;DHT22;35045;51.194;7.268;2023-08-08T07:55:41;13.80;99.90
49218;DHT22;35045;51.194;7.268;2023-08-08T07:58:08;13.70;99.90
49218;DHT22;35045;51.194;7.268;2023-08-08T08:00:34;13.60;99.90
49218;DHT22;35045;51.194;7.268;2023-08-08T08:03:00;13.70;99.90
49218;DHT22;35045;51.194;7.268;2023-08-08T08:05:26;13.80;99.90
49218;DHT22;35045;51.194;7.268;2023-08-08T08:07:52;13.90;99.90
49218;DHT22;35045;51.194;7.268;2023-08-08T08:10:18;14.00;99.90
49218;DHT22;35045;51.194;7.268;2023-08-08T08:12:44;14.00;99.90
49218;DHT22;35045;51.194;7.268;2023-08-08T08:15:10;14.00;99.90
49218;DHT22;35045;51.194;7.268;2023-08-08T08:17:36;14.00;99.90
49218;DHT22;35045;51.194;7.268;2023-08-08T08:20:02;14.10;99.90
49218;DHT22;35045;51.194;7.268;2023-08-08T08:22:31;14.20;99.90
49218;DHT22;35045;51.194;7.268;2023-08-08T08:24:57;14.20;99.90
49218;DHT22;35045;51.194;7.268;2023-08-08T08:27:23;14.10;99.90
49218;DHT22;35045;51.194;7.268;2023-08-08T08:29:49;14.10;99.90
49218;DHT22;35045;51.194;7.268;2023-08-08T08:32:15;14.20;99.90
49218;DHT22;35045;51.194;7.268;2023-08-08T08:34:41;14.20;99.90
49218;DHT22;35045;51.194;7.268;2023-08-08T08:37:08;14.20;99.90
49218;DHT22;35045;51.194;7.268;2023-08-08T08:39:34;14.20;99.90
49218;DHT22;35045;51.194;7.268;2023-08-08T08:42:00;14.30;99.90
49218;DHT22;35045;51.194;7.268;2023-08-08T08:44:30;14.30;99.90
49218;DHT22;35045;51.194;7.268;2023-08-08T08:46:57;14.40;99.90
49218;DHT22;35045;51.194;7.268;2023-08-08T08:49:24;14.50;99.90
49218;DHT22;35045;51.194;7.268;2023-08-08T08:51:50;14.60;99.90
49218;DHT22;35045;51.194;7.268;2023-08-08T08:54:19;14.60;99.90
49218;DHT22;35045;51.194;7.268;2023-08-08T08:56:46;14.60;99.90
49218;DHT22;35045;51.194;7.268;2023-08-08T08:59:12;14.70;99.90
49218;DHT22;35045;51.194;7.268;2023-08-08T09:01:38;15.10;99.90
49218;DHT22;35045;51.194;7.268;2023-08-08T09:04:05;15.40;99.90
49218;DHT22;35045;51.194;7.268;2023-08-08T09:06:32;15.50;99.90
49218;DHT22;35045;51.194;7.268;2023-08-08T09:08:58;15.50;99.90
49218;DHT22;35045;51.194;7.268;2023-08-08T09:11:28;15.60;99.90
49218;DHT22;35045;51.194;7.268;2023-08-08T09:13:54;15.50;99.90
49218;DHT22;35045;51.194;7.268;2023-08-08T09:16:21;15.40;99.90
49218;DHT22;35045;51.194;7.268;2023-08-08T09:18:47;15.40;99.90
49218;DHT22;35045;51.194;7.268;2023-08-08T09:21:13;15.20;99.90
49218;DHT22;35045;51.194;7.268;2023-08-08T09:23:41;15.00;99.90
49218;DHT22;35045;51.194;7.268;2023-08-08T09:26:08;15.10;99.90
49218;DHT22;35045;51.194;7.268;2023-08-08T09:28:34;15.20;99.90
49218;DHT22;35045;51.194;7.268;2023-08-08T09:31:00;15.30;99.90
49218;DHT22;35045;51.194;7.268;2023-08-08T09:33:29;15.40;99.90
49218;DHT22;35045;51.194;7.268;2023-08-08T09:35:55;15.40;99.90
49218;DHT22;35045;51.194;7.268;2023-08-08T09:38:21;15.40;99.90
49218;DHT22;35045;51.194;7.268;2023-08-08T09:40:47;15.50;99.90
49218;DHT22;35045;51.194;7.268;2023-08-08T09:43:15;15.70;99.90
49218;DHT22;35045;51.194;7.268;2023-08-08T09:45:41;15.90;99.90
49218;DHT22;35045;51.194;7.268;2023-08-08T09:48:10;15.90;99.90
49218;DHT22;35045;51.194;7.268;2023-08-08T09:50:36;15.90;99.90
49218;DHT22;35045;51.194;7.268;2023-08-08T09:53:03;15.90;99.90
49218;DHT22;35045;51.194;7.268;2023-08-08T09:55:31;15.90;99.90
49218;DHT22;35045;51.194;7.268;2023-08-08T09:57:57;15.90;99.90
49218;DHT22;35045;51.194;7.268;2023-08-08T10:00:24;15.70;99.90
49218;DHT22;35045;51.194;7.268;2023-08-08T10:02:53;15.50;99.90
49218;DHT22;35045;51.194;7.268;2023-08-08T10:05:20;15.30;99.90
49218;DHT22;35045;51.194;7.268;2023-08-08T10:07:46;15.30;99.90
49218;DHT22;35045;51.194;7.268;2023-08-08T10:10:12;15.30;99.90
49218;DHT22;35045;51.194;7.268;2023-08-08T10:12:39;15.30;99.90
49218;DHT22;35045;51.194;7.268;2023-08-08T10:15:09;15.40;99.90
49218;DHT22;35045;51.194;7.268;2023-08-08T10:17:36;15.40;99.90
49218;DHT22;35045;51.194;7.268;2023-08-08T10:20:03;15.30;99.90
49218;DHT22;35045;51.194;7.268;2023-08-08T10:22:35;15.60;99.90
49218;DHT22;35045;51.194;7.268;2023-08-08T10:25:03;15.90;99.90
49218;DHT22;35045;51.194;7.268;2023-08-08T10:27:33;16.20;99.90
49218;DHT22;35045;51.194;7.268;2023-08-08T10:30:05;16.30;99.90
49218;DHT22;35045;51.194;7.268;2023-08-08T10:32:40;16.30;99.90
49218;DHT22;35045;51.194;7.268;2023-08-08T10:35:06;16.30;99.90
49218;DHT22;35045;51.194;7.268;2023-08-08T10:37:34;16.10;99.90
49218;DHT22;35045;51.194;7.268;2023-08-08T10:40:00;15.90;99.90
49218;DHT22;35045;51.194;7.268;2023-08-08T10:42:31;15.90;99.90
49218;DHT22;35045;51.194;7.268;2023-08-08T10:44:59;15.80;99.90
49218;DHT22;35045;51.194;7.268;2023-08-08T10:47:32;15.80;99.90
49218;DHT22;35045;51.194;7.268;2023-08-08T10:50:02;15.90;99.90
49218;DHT22;35045;51.194;7.268;2023-08-08T10:52:28;15.90;99.90
49218;DHT22;35045;51.194;7.268;2023-08-08T10:54:55;15.80;99.90
49218;DHT22;35045;51.194;7.268;2023-08-08T10:57:24;15.70;99.90
49218;DHT22;35045;51.194;7.268;2023-08-08T10:59:50;15.60;99.90
49218;DHT22;35045;51.194;7.268;2023-08-08T11:02:16;15.50;99.90
49218;DHT22;35045;51.194;7.268;2023-08-08T11:04:43;15.50;99.90
49218;DHT22;35045;51.194;7.268;2023-08-08T11:07:10;15.30;99.90
49218;DHT22;35045;51.194;7.268;2023-08-08T11:09:36;15.30;99.90
49218;DHT22;35045;51.194;7.268;2023-08-08T11:12:02;15.20;99.90
49218;DHT22;35045;51.194;7.268;2023-08-08T11:14:29;15.10;99.90
49218;DHT22;35045;51.194;7.268;2023-08-08T11:16:55;15.00;99.90
49218;DHT22;35045;51.194;7.268;2023-08-08T11:19:21;15.00;99.90
49218;DHT22;35045;51.194;7.268;2023-08-08T11:21:49;15.00;99.90
49218;DHT22;35045;51.194;7.268;2023-08-08T11:24:15;15.10;99.90
49218;DHT22;35045;51.194;7.268;2023-08-08T11:26:42;15.20;99.90
49218;DHT22;35045;51.194;7.268;2023-08-08T11:29:09;15.40;99.90
49218;DHT22;35045;51.194;7.268;2023-08-08T11:31:35;15.60;99.90
49218;DHT22;35045;51.194;7.268;2023-08-08T11:34:02;15.90;99.90
49218;DHT22;35045;51.194;7.268;2023-08-08T11:36:29;16.10;99.90
49218;DHT22;35045;51.194;7.268;2023-08-08T11:38:56;16.10;99.90
49218;DHT22;35045;51.194;7.268;2023-08-08T11:41:23;16.10;99.90
49218;DHT22;35045;51.194;7.268;2023-08-08T11:43:50;16.00;99.90
49218;DHT22;35045;51.194;7.268;2023-08-08T11:46:16;16.00;99.90
49218;DHT22;35045;51.194;7.268;2023-08-08T11:48:46;15.80;99.90
49218;DHT22;35045;51.194;7.268;2023-08-08T11:51:13;15.80;99.90
49218;DHT22;35045;51.194;7.268;2023-08-08T11:53:47;15.70;99.90
49218;DHT22;35045;51.194;7.268;2023-08-08T11:56:13;15.60;99.90
49218;DHT22;35045;51.194;7.268;2023-08-08T11:58:39;15.60;99.90
49218;DHT22;35045;51.194;7.268;2023-08-08T12:01:05;15.60;99.90
49218;DHT22;35045;51.194;7.268;2023-08-08T12:03:31;15.50;99.90
49218;DHT22;35045;51.194;7.268;2023-08-08T12:05:58;15.50;99.90
49218;DHT22;35045;51.194;7.268;2023-08-08T12:08:24;15.50;99.90
49218;DHT22;35045;51.194;7.268;2023-08-08T12:10:51;15.50;99.90
49218;DHT22;35045;51.194;7.268;2023-08-08T12:13:20;15.40;99.90
49218;DHT22;35045;51.194;7.268;2023-08-08T12:15:46;15.40;99.90
49218;DHT22;35045;51.194;7.268;2023-08-08T12:18:18;15.40;99.90
49218;DHT22;35045;51.194;7.268;2023-08-08T12:20:44;15.50;99.90
49218;DHT22;35045;51.194;7.268;2023-08-08T12:23:11;15.70;99.90
49218;DHT22;35045;51.194;7.268;2023-08-08T12:25:37;15.80;99.90
49218;DHT22;35045;51.194;7.268;2023-08-08T12:28:03;15.90;99.90
49218;DHT22;35045;51.194;7.268;2023-08-08T12:30:30;16.00;99.90
49218;DHT22;35045;51.194;7.268;2023-08-08T12:32:57;15.90;99.90
49218;DHT22;35045;51.194;7.268;2023-08-08T12:35:23;15.80;99.90
49218;DHT22;35045;51.194;7.268;2023-08-08T12:37:52;15.60;99.90
49218;DHT22;35045;51.194;7.268;2023-08-08T12:40:18;15.50;99.90
49218;DHT22;35045;51.194;7.268;2023-08-08T12:42:44;15.20;99.90
49218;DHT22;35045;51.194;7.268;2023-08-08T12:45:10;15.00;99.90
49218;DHT22;35045;51.194;7.268;2023-08-08T12:47:36;14.90;99.90
49218;DHT22;35045;51.194;7.268;2023-08-08T12:50:03;14.80;99.90
49218;DHT22;35045;51.194;7.268;2023-08-08T12:52:29;14.60;99.90
49218;DHT22;35045;51.194;7.268;2023-08-08T12:54:55;14.50;99.90
49218;DHT22;35045;51.194;7.268;2023-08-08T12:57:21;14.60;99.90
49218;DHT22;35045;51.194;7.268;2023-08-08T12:59:48;14.40;99.90
49218;DHT22;35045;51.194;7.268;2023-08-08T13:02:13;14.50;99.90
49218;DHT22;35045;51.194;7.268;2023-08-08T13:04:40;14.30;99.90
49218;DHT22;35045;51.194;7.268;2023-08-08T13:07:06;14.40;99.90
49218;DHT22;35045;51.194;7.268;2023-08-08T13:09:33;14.40;99.90
49218;DHT22;35045;51.194;7.268;2023-08-08T13:11:59;14.50;99.90
49218;DHT22;35045;51.194;7.268;2023-08-08T13:14:25;14.60;99.90
49218;DHT22;35045;51.194;7.268;2023-08-08T13:16:51;14.70;99.90
49218;DHT22;35045;51.194;7.268;2023-08-08T13:19:19;14.90;99.90
49218;DHT22;35045;51.194;7.268;2023-08-08T13:21:47;15.00;99.90
49218;DHT22;35045;51.194;7.268;2023-08-08T13:24:13;15.20;99.90
49218;DHT22;35045;51.194;7.268;2023-08-08T13:26:39;15.70;99.90
49218;DHT22;35045;51.194;7.268;2023-08-08T13:29:06;16.40;99.90
49218;DHT22;35045;51.194;7.268;2023-08-08T13:31:32;16.90;99.90
49218;DHT22;35045;51.194;7.268;2023-08-08T13:33:59;17.00;99.90
49218;DHT22;35045;51.194;7.268;2023-08-08T13:36:24;17.00;99.90
49218;DHT22;35045;51.194;7.268;2023-08-08T13:38:50;17.00;99.90
49218;DHT22;35045;51.194;7.268;2023-08-08T13:41:17;16.90;99.90
49218;DHT22;35045;51.194;7.268;2023-08-08T13:43:43;16.70;99.90
49218;DHT22;35045;51.194;7.268;2023-08-08T13:46:09;16.60;99.90
49218;DHT22;35045;51.194;7.268;2023-08-08T13:48:36;16.60;99.90
49218;DHT22;35045;51.194;7.268;2023-08-08T13:51:02;16.50;99.90
49218;DHT22;35045;51.194;7.268;2023-08-08T13:53:28;16.40;99.90
49218;DHT22;35045;51.194;7.268;2023-08-08T13:55:55;16.50;99.90
49218;DHT22;35045;51.194;7.268;2023-08-08T13:58:21;16.80;99.90
49218;DHT22;35045;51.194;7.268;2023-08-08T14:00:48;17.40;99.90
49218;DHT22;35045;51.194;7.268;2023-08-08T14:03:14;17.70;99.90
49218;DHT22;35045;51.194;7.268;2023-08-08T14:05:41;17.70;99.90
49218;DHT22;35045;51.194;7.268;2023-08-08T14:08:08;17.90;99.90
49218;DHT22;35045;51.194;7.268;2023-08-08T14:10:34;18.10;99.90
49218;DHT22;35045;51.194;7.268;2023-08-08T14:13:00;17.80;99.90
49218;DHT22;35045;51.194;7.268;2023-08-08T14:15:27;17.50;99.90
49218;DHT22;35045;51.194;7.268;2023-08-08T14:17:54;17.40;99.90
49218;DHT22;35045;51.194;7.268;2023-08-08T14:20:20;17.30;99.90
49218;DHT22;35045;51.194;7.268;2023-08-08T14:22:47;17.40;99.90
49218;DHT22;35045;51.194;7.268;2023-08-08T14:25:13;17.20;99.90
49218;DHT22;35045;51.194;7.268;2023-08-08T14:27:39;17.20;99.90
49218;DHT22;35045;51.194;7.268;2023-08-08T14:30:06;17.10;99.90
49218;DHT22;35045;51.194;7.268;2023-08-08T14:32:32;17.10;99.90
49218;DHT22;35045;51.194;7.268;2023-08-08T14:34:58;17.20;99.90
49218;DHT22;35045;51.194;7.268;2023-08-08T14:37:25;17.30;99.90
49218;DHT22;35045;51.194;7.268;2023-08-08T14:39:52;17.40;99.90
49218;DHT22;35045;51.194;7.268;2023-08-08T14:42:19;17.60;99.90
49218;DHT22;35045;51.194;7.268;2023-08-08T14:44:46;17.60;99.90
49218;DHT22;35045;51.194;7.268;2023-08-08T14:47:12;17.60;99.90
49218;DHT22;35045;51.194;7.268;2023-08-08T14:49:38;17.40;99.90
49218;DHT22;35045;51.194;7.268;2023-08-08T14:52:04;17.30;99.90
49218;DHT22;35045;51.194;7.268;2023-08-08T14:54:30;17.20;99.90
49218;DHT22;35045;51.194;7.268;2023-08-08T14:56:56;17.10;99.90
49218;DHT22;35045;51.194;7.268;2023-08-08T14:59:22;17.00;99.90
49218;DHT22;35045;51.194;7.268;2023-08-08T15:01:48;17.00;99.90
49218;DHT22;35045;51.194;7.268;2023-08-08T15:04:14;17.00;99.90
49218;DHT22;35045;51.194;7.268;2023-08-08T15:06:41;17.70;99.90
49218;DHT22;35045;51.194;7.268;2023-08-08T15:09:07;18.10;99.90
49218;DHT22;35045;51.194;7.268;2023-08-08T15:11:33;17.80;99.90
49218;DHT22;35045;51.194;7.268;2023-08-08T15:13:59;17.30;99.90
49218;DHT22;35045;51.194;7.268;2023-08-08T15:16:25;17.10;99.90
49218;DHT22;35045;51.194;7.268;2023-08-08T15:18:51;17.10;99.90
49218;DHT22;35045;51.194;7.268;2023-08-08T15:21:17;17.10;99.90
49218;DHT22;35045;51.194;7.268;2023-08-08T15:23:46;17.40;99.90
49218;DHT22;35045;51.194;7.268;2023-08-08T15:26:12;18.00;99.90